sensor_id;sensor_type;location;lat;lon;timestamp;pressure;altitude;pressure_sealevel;temperature;humidity
20624;BME280;10471;42.736;23.346;2023-02-28T00:00:25;95996.59;;;7.16;100.00
20624;BME280;10471;42.736;23.346;2023-02-28T00:02:50;95993.16;;;7.15;100.00
20624;BME280;10471;42.736;23.346;2023-02-28T00:05:18;95992.13;;;7.16;100.00
20624;BME280;10471;42.736;23.346;2023-02-28T00:07:44;96000.25;;;7.15;100.00
20624;BME280;10471;42.736;23.346;2023-02-28T00:10:13;96004.38;;;7.11;100.00
20624;BME280;10471;42.736;23.346;2023-02-28T00:12:39;96003.28;;;7.07;100.00
20624;BME280;10471;42.736;23.346;2023-02-28T00:15:06;96007.69;;;7.07;100.00
20624;BME280;10471;42.736;23.346;2023-02-28T00:17:31;96017.84;;;7.03;100.00
20624;BME280;10471;42.736;23.346;2023-02-28T00:19:57;96013.88;;;6.84;100.00
20624;BME280;10471;42.736;23.346;2023-02-28T00:22:26;96016.88;;;6.76;100.00
20624;BME280;10471;42.736;23.346;2023-02-28T00:24:52;96031.94;;;6.69;100.00
20624;BME280;10471;42.736;23.346;2023-02-28T00:27:17;96038.50;;;6.55;100.00
20624;BME280;10471;42.736;23.346;2023-02-28T00:29:42;96031.28;;;6.62;100.00
20624;BME280;10471;42.736;23.346;2023-02-28T00:32:08;96032.94;;;6.52;100.00
20624;BME280;10471;42.736;23.346;2023-02-28T00:34:33;96028.94;;;6.50;100.00
20624;BME280;10471;42.736;23.346;2023-02-28T00:37:06;96034.53;;;6.42;100.00
20624;BME280;10471;42.736;23.346;2023-02-28T00:39:36;96025.09;;;6.41;100.00
20624;BME280;10471;42.736;23.346;2023-02-28T00:42:03;96024.41;;;6.45;100.00
20624;BME280;10471;42.736;23.346;2023-02-28T00:44:29;96034.44;;;6.48;100.00
20624;BME280;10471;42.736;23.346;2023-02-28T00:46:55;96029.41;;;6.47;100.00
20624;BME280;10471;42.736;23.346;2023-02-28T00:49:22;96023.94;;;6.48;100.00
20624;BME280;10471;42.736;23.346;2023-02-28T00:51:47;96025.84;;;6.52;100.00
20624;BME280;10471;42.736;23.346;2023-02-28T00:54:13;96017.47;;;6.51;100.00
20624;BME280;10471;42.736;23.346;2023-02-28T00:56:38;96006.09;;;6.45;100.00
20624;BME280;10471;42.736;23.346;2023-02-28T00:59:04;96001.22;;;6.37;100.00
20624;BME280;10471;42.736;23.346;2023-02-28T01:01:29;95997.16;;;6.30;100.00
20624;BME280;10471;42.736;23.346;2023-02-28T01:03:55;96010.69;;;6.27;100.00
20624;BME280;10471;42.736;23.346;2023-02-28T01:06:20;96002.59;;;6.28;100.00
20624;BME280;10471;42.736;23.346;2023-02-28T01:08:45;96002.06;;;6.26;100.00
20624;BME280;10471;42.736;23.346;2023-02-28T01:11:13;96002.75;;;6.22;100.00
20624;BME280;10471;42.736;23.346;2023-02-28T01:13:40;96000.13;;;6.22;100.00
20624;BME280;10471;42.736;23.346;2023-02-28T01:16:06;96012.19;;;6.23;100.00
20624;BME280;10471;42.736;23.346;2023-02-28T01:18:32;96007.88;;;6.17;100.00
20624;BME280;10471;42.736;23.346;2023-02-28T01:20:57;95994.94;;;6.10;100.00
20624;BME280;10471;42.736;23.346;2023-02-28T01:23:23;95996.19;;;6.08;100.00
20624;BME280;10471;42.736;23.346;2023-02-28T01:25:50;96009.41;;;5.90;100.00
20624;BME280;10471;42.736;23.346;2023-02-28T01:28:16;96006.91;;;5.95;100.00
20624;BME280;10471;42.736;23.346;2023-02-28T01:30:42;96008.97;;;5.93;100.00
20624;BME280;10471;42.736;23.346;2023-02-28T01:33:07;96002.84;;;5.76;100.00
20624;BME280;10471;42.736;23.346;2023-02-28T01:35:33;96012.16;;;5.72;100.00
20624;BME280;10471;42.736;23.346;2023-02-28T01:37:59;96001.00;;;5.42;100.00
20624;BME280;10471;42.736;23.346;2023-02-28T01:40:24;96000.78;;;5.32;100.00
20624;BME280;10471;42.736;23.346;2023-02-28T01:42:50;96005.34;;;5.25;100.00
20624;BME280;10471;42.736;23.346;2023-02-28T01:47:57;95999.88;;;5.16;100.00
20624;BME280;10471;42.736;23.346;2023-02-28T01:50:28;96001.03;;;5.19;100.00
20624;BME280;10471;42.736;23.346;2023-02-28T01:52:57;96008.63;;;5.21;100.00
20624;BME280;10471;42.736;23.346;2023-02-28T01:55:26;96011.34;;;5.15;100.00
20624;BME280;10471;42.736;23.346;2023-02-28T01:57:56;96017.59;;;5.14;100.00
20624;BME280;10471;42.736;23.346;2023-02-28T02:00:25;96005.13;;;5.16;100.00
20624;BME280;10471;42.736;23.346;2023-02-28T02:02:54;96008.75;;;5.15;100.00
20624;BME280;10471;42.736;23.346;2023-02-28T02:05:25;96004.66;;;5.18;100.00
20624;BME280;10471;42.736;23.346;2023-02-28T02:07:55;96008.03;;;5.08;100.00
20624;BME280;10471;42.736;23.346;2023-02-28T02:18:51;95998.72;;;4.89;100.00
20624;BME280;10471;42.736;23.346;2023-02-28T02:34:54;96005.06;;;4.93;100.00
20624;BME280;10471;42.736;23.346;2023-02-28T02:40:25;96016.47;;;5.10;100.00
20624;BME280;10471;42.736;23.346;2023-02-28T02:42:56;96005.53;;;5.13;100.00
20624;BME280;10471;42.736;23.346;2023-02-28T02:45:34;96017.00;;;5.12;100.00
20624;BME280;10471;42.736;23.346;2023-02-28T02:48:05;96020.97;;;5.03;100.00
20624;BME280;10471;42.736;23.346;2023-02-28T02:50:55;96026.56;;;5.06;100.00
20624;BME280;10471;42.736;23.346;2023-02-28T02:53:27;96021.88;;;4.97;100.00
20624;BME280;10471;42.736;23.346;2023-02-28T02:55:55;96022.56;;;5.04;100.00
20624;BME280;10471;42.736;23.346;2023-02-28T02:58:24;96027.56;;;4.94;100.00
20624;BME280;10471;42.736;23.346;2023-02-28T03:00:54;96023.47;;;4.98;100.00
20624;BME280;10471;42.736;23.346;2023-02-28T03:03:22;96023.72;;;5.08;100.00
20624;BME280;10471;42.736;23.346;2023-02-28T03:05:54;96021.69;;;5.10;100.00
20624;BME280;10471;42.736;23.346;2023-02-28T03:08:21;96020.19;;;5.14;100.00
20624;BME280;10471;42.736;23.346;2023-02-28T03:10:50;96029.63;;;5.15;100.00
20624;BME280;10471;42.736;23.346;2023-02-28T03:18:54;96046.56;;;5.23;100.00
20624;BME280;10471;42.736;23.346;2023-02-28T03:26:27;96067.34;;;5.18;100.00
20624;BME280;10471;42.736;23.346;2023-02-28T03:32:16;96065.97;;;5.16;100.00
20624;BME280;10471;42.736;23.346;2023-02-28T03:34:55;96064.13;;;5.17;100.00
20624;BME280;10471;42.736;23.346;2023-02-28T03:37:24;96068.69;;;5.10;100.00
20624;BME280;10471;42.736;23.346;2023-02-28T03:40:10;96075.03;;;5.14;100.00
20624;BME280;10471;42.736;23.346;2023-02-28T03:42:40;96084.72;;;5.13;100.00
20624;BME280;10471;42.736;23.346;2023-02-28T03:45:13;96082.00;;;5.19;100.00
20624;BME280;10471;42.736;23.346;2023-02-28T03:47:48;96079.81;;;5.17;100.00
20624;BME280;10471;42.736;23.346;2023-02-28T03:50:19;96081.41;;;5.18;100.00
20624;BME280;10471;42.736;23.346;2023-02-28T03:55:42;96084.16;;;5.22;100.00
20624;BME280;10471;42.736;23.346;2023-02-28T03:58:20;96085.28;;;5.26;100.00
20624;BME280;10471;42.736;23.346;2023-02-28T04:00:50;96086.63;;;5.18;100.00
20624;BME280;10471;42.736;23.346;2023-02-28T04:03:20;96083.72;;;5.25;100.00
20624;BME280;10471;42.736;23.346;2023-02-28T04:05:51;96088.47;;;5.28;100.00
20624;BME280;10471;42.736;23.346;2023-02-28T04:08:17;96096.44;;;5.33;100.00
20624;BME280;10471;42.736;23.346;2023-02-28T04:10:48;96089.63;;;5.32;100.00
20624;BME280;10471;42.736;23.346;2023-02-28T04:13:16;96086.81;;;5.34;100.00
20624;BME280;10471;42.736;23.346;2023-02-28T04:15:41;96096.00;;;5.36;100.00
20624;BME280;10471;42.736;23.346;2023-02-28T04:18:06;96088.03;;;5.31;100.00
20624;BME280;10471;42.736;23.346;2023-02-28T04:20:32;96082.94;;;5.36;100.00
20624;BME280;10471;42.736;23.346;2023-02-28T04:22:57;96084.97;;;5.34;100.00
20624;BME280;10471;42.736;23.346;2023-02-28T04:25:22;96091.09;;;5.28;100.00
20624;BME280;10471;42.736;23.346;2023-02-28T04:27:48;96092.78;;;5.23;100.00
20624;BME280;10471;42.736;23.346;2023-02-28T04:30:13;96085.63;;;5.18;100.00
20624;BME280;10471;42.736;23.346;2023-02-28T04:32:39;96087.56;;;5.23;100.00
20624;BME280;10471;42.736;23.346;2023-02-28T04:35:04;96086.88;;;5.27;100.00
20624;BME280;10471;42.736;23.346;2023-02-28T04:37:30;96084.63;;;5.31;100.00
20624;BME280;10471;42.736;23.346;2023-02-28T04:40:00;96077.13;;;5.34;100.00
20624;BME280;10471;42.736;23.346;2023-02-28T04:42:25;96088.28;;;5.41;100.00
20624;BME280;10471;42.736;23.346;2023-02-28T04:44:51;96088.41;;;5.46;100.00
20624;BME280;10471;42.736;23.346;2023-02-28T04:47:17;96094.53;;;5.52;100.00
20624;BME280;10471;42.736;23.346;2023-02-28T04:49:42;96091.25;;;5.56;100.00
20624;BME280;10471;42.736;23.346;2023-02-28T04:52:08;96097.63;;;5.60;100.00
20624;BME280;10471;42.736;23.346;2023-02-28T04:54:35;96098.31;;;5.67;100.00
20624;BME280;10471;42.736;23.346;2023-02-28T04:57:00;96098.97;;;5.74;100.00
20624;BME280;10471;42.736;23.346;2023-02-28T04:59:26;96094.72;;;5.80;100.00
20624;BME280;10471;42.736;23.346;2023-02-28T05:01:52;96092.88;;;5.80;100.00
20624;BME280;10471;42.736;23.346;2023-02-28T05:04:17;96096.63;;;5.84;100.00
20624;BME280;10471;42.736;23.346;2023-02-28T05:06:43;96097.88;;;5.82;100.00
20624;BME280;10471;42.736;23.346;2023-02-28T05:09:08;96099.03;;;5.86;100.00
20624;BME280;10471;42.736;23.346;2023-02-28T05:11:36;96095.16;;;5.88;100.00
20624;BME280;10471;42.736;23.346;2023-02-28T05:14:06;96096.41;;;5.86;100.00
20624;BME280;10471;42.736;23.346;2023-02-28T05:16:32;96104.56;;;5.89;100.00
20624;BME280;10471;42.736;23.346;2023-02-28T05:18:58;96109.69;;;5.84;100.00
20624;BME280;10471;42.736;23.346;2023-02-28T05:21:31;96109.25;;;5.87;100.00
20624;BME280;10471;42.736;23.346;2023-02-28T05:24:09;96110.72;;;5.94;100.00
20624;BME280;10471;42.736;23.346;2023-02-28T05:26:39;96121.97;;;5.95;100.00
20624;BME280;10471;42.736;23.346;2023-02-28T05:29:05;96132.00;;;5.98;100.00
20624;BME280;10471;42.736;23.346;2023-02-28T05:31:30;96130.84;;;5.94;100.00
20624;BME280;10471;42.736;23.346;2023-02-28T05:33:56;96136.06;;;5.94;100.00
20624;BME280;10471;42.736;23.346;2023-02-28T05:36:23;96128.56;;;5.97;100.00
20624;BME280;10471;42.736;23.346;2023-02-28T05:38:50;96131.53;;;6.01;100.00
20624;BME280;10471;42.736;23.346;2023-02-28T05:41:16;96133.13;;;6.02;100.00
20624;BME280;10471;42.736;23.346;2023-02-28T05:43:42;96132.13;;;6.03;100.00
20624;BME280;10471;42.736;23.346;2023-02-28T05:46:10;96136.88;;;6.06;100.00
20624;BME280;10471;42.736;23.346;2023-02-28T05:48:37;96131.75;;;6.11;100.00
20624;BME280;10471;42.736;23.346;2023-02-28T05:51:04;96140.97;;;6.13;100.00
20624;BME280;10471;42.736;23.346;2023-02-28T05:53:30;96143.34;;;6.15;100.00
20624;BME280;10471;42.736;23.346;2023-02-28T05:55:56;96130.84;;;6.17;100.00
20624;BME280;10471;42.736;23.346;2023-02-28T05:58:22;96142.78;;;6.24;100.00
20624;BME280;10471;42.736;23.346;2023-02-28T06:00:48;96139.50;;;6.29;100.00
20624;BME280;10471;42.736;23.346;2023-02-28T06:03:14;96145.28;;;6.31;100.00
20624;BME280;10471;42.736;23.346;2023-02-28T06:05:39;96142.66;;;6.31;100.00
20624;BME280;10471;42.736;23.346;2023-02-28T06:08:05;96150.84;;;6.34;100.00
20624;BME280;10471;42.736;23.346;2023-02-28T06:10:33;96147.09;;;6.42;100.00
20624;BME280;10471;42.736;23.346;2023-02-28T06:13:02;96150.81;;;6.46;100.00
20624;BME280;10471;42.736;23.346;2023-02-28T06:15:29;96141.94;;;6.47;100.00
20624;BME280;10471;42.736;23.346;2023-02-28T06:17:54;96135.03;;;6.52;100.00
20624;BME280;10471;42.736;23.346;2023-02-28T06:20:22;96144.78;;;6.56;100.00
20624;BME280;10471;42.736;23.346;2023-02-28T06:22:47;96143.84;;;6.62;100.00
20624;BME280;10471;42.736;23.346;2023-02-28T06:25:13;96141.34;;;6.67;100.00
20624;BME280;10471;42.736;23.346;2023-02-28T06:27:38;96150.34;;;6.71;100.00
20624;BME280;10471;42.736;23.346;2023-02-28T06:30:04;96148.63;;;6.77;100.00
20624;BME280;10471;42.736;23.346;2023-02-28T06:32:29;96151.66;;;6.85;100.00
20624;BME280;10471;42.736;23.346;2023-02-28T06:34:55;96157.00;;;6.90;100.00
20624;BME280;10471;42.736;23.346;2023-02-28T06:37:22;96160.75;;;6.94;100.00
20624;BME280;10471;42.736;23.346;2023-02-28T06:39:51;96156.63;;;6.98;100.00
20624;BME280;10471;42.736;23.346;2023-02-28T06:42:16;96161.41;;;7.01;100.00
20624;BME280;10471;42.736;23.346;2023-02-28T06:44:42;96160.28;;;6.97;100.00
20624;BME280;10471;42.736;23.346;2023-02-28T06:47:08;96164.03;;;7.01;100.00
20624;BME280;10471;42.736;23.346;2023-02-28T06:49:35;96170.09;;;6.90;100.00
20624;BME280;10471;42.736;23.346;2023-02-28T06:52:01;96166.66;;;7.01;100.00
20624;BME280;10471;42.736;23.346;2023-02-28T06:54:27;96160.16;;;7.04;100.00
20624;BME280;10471;42.736;23.346;2023-02-28T06:56:52;96158.97;;;7.11;100.00
20624;BME280;10471;42.736;23.346;2023-02-28T06:59:19;96163.06;;;7.18;100.00
20624;BME280;10471;42.736;23.346;2023-02-28T07:01:45;96167.69;;;7.28;100.00
20624;BME280;10471;42.736;23.346;2023-02-28T07:04:11;96168.56;;;7.33;100.00
20624;BME280;10471;42.736;23.346;2023-02-28T07:06:38;96171.53;;;7.37;100.00
20624;BME280;10471;42.736;23.346;2023-02-28T07:09:03;96175.16;;;7.36;100.00
20624;BME280;10471;42.736;23.346;2023-02-28T07:11:29;96170.59;;;7.43;100.00
20624;BME280;10471;42.736;23.346;2023-02-28T07:13:55;96167.72;;;7.44;100.00
20624;BME280;10471;42.736;23.346;2023-02-28T07:16:22;96163.34;;;7.50;100.00
20624;BME280;10471;42.736;23.346;2023-02-28T07:18:47;96165.97;;;7.50;100.00
20624;BME280;10471;42.736;23.346;2023-02-28T07:21:13;96168.66;;;7.55;100.00
20624;BME280;10471;42.736;23.346;2023-02-28T07:23:39;96173.47;;;7.58;100.00
20624;BME280;10471;42.736;23.346;2023-02-28T07:26:05;96176.63;;;7.60;100.00
20624;BME280;10471;42.736;23.346;2023-02-28T07:28:31;96173.38;;;7.53;100.00
20624;BME280;10471;42.736;23.346;2023-02-28T07:31:03;96178.72;;;7.58;100.00
20624;BME280;10471;42.736;23.346;2023-02-28T07:33:29;96177.28;;;7.67;100.00
20624;BME280;10471;42.736;23.346;2023-02-28T07:36:03;96174.03;;;7.76;100.00
20624;BME280;10471;42.736;23.346;2023-02-28T07:38:28;96180.16;;;7.81;100.00
20624;BME280;10471;42.736;23.346;2023-02-28T07:40:54;96173.16;;;7.71;100.00
20624;BME280;10471;42.736;23.346;2023-02-28T07:43:19;96175.84;;;7.76;100.00
20624;BME280;10471;42.736;23.346;2023-02-28T07:45:44;96185.88;;;7.79;100.00
20624;BME280;10471;42.736;23.346;2023-02-28T07:48:10;96178.56;;;7.80;100.00
20624;BME280;10471;42.736;23.346;2023-02-28T07:50:35;96182.41;;;7.89;100.00
20624;BME280;10471;42.736;23.346;2023-02-28T07:53:00;96178.97;;;7.89;100.00
20624;BME280;10471;42.736;23.346;2023-02-28T07:55:26;96182.25;;;7.80;100.00
20624;BME280;10471;42.736;23.346;2023-02-28T07:57:52;96176.25;;;7.68;100.00
20624;BME280;10471;42.736;23.346;2023-02-28T08:00:18;96169.97;;;7.85;100.00
20624;BME280;10471;42.736;23.346;2023-02-28T08:02:43;96172.69;;;8.06;100.00
20624;BME280;10471;42.736;23.346;2023-02-28T08:05:08;96171.53;;;8.14;100.00
20624;BME280;10471;42.736;23.346;2023-02-28T08:07:34;96160.69;;;8.10;100.00
20624;BME280;10471;42.736;23.346;2023-02-28T08:09:59;96167.78;;;8.26;100.00
20624;BME280;10471;42.736;23.346;2023-02-28T08:12:25;96174.59;;;8.11;100.00
20624;BME280;10471;42.736;23.346;2023-02-28T08:14:51;96170.47;;;8.15;100.00
20624;BME280;10471;42.736;23.346;2023-02-28T08:17:16;96177.31;;;8.32;100.00
20624;BME280;10471;42.736;23.346;2023-02-28T08:19:42;96173.44;;;8.56;100.00
20624;BME280;10471;42.736;23.346;2023-02-28T08:22:07;96168.00;;;8.79;100.00
20624;BME280;10471;42.736;23.346;2023-02-28T08:24:32;96173.66;;;8.92;100.00
20624;BME280;10471;42.736;23.346;2023-02-28T08:26:58;96180.00;;;8.75;100.00
20624;BME280;10471;42.736;23.346;2023-02-28T08:29:23;96184.47;;;8.96;100.00
20624;BME280;10471;42.736;23.346;2023-02-28T08:31:49;96181.03;;;9.16;100.00
20624;BME280;10471;42.736;23.346;2023-02-28T08:34:16;96180.16;;;9.32;100.00
20624;BME280;10471;42.736;23.346;2023-02-28T08:36:42;96178.69;;;9.41;100.00
20624;BME280;10471;42.736;23.346;2023-02-28T08:39:10;96181.81;;;9.38;100.00
20624;BME280;10471;42.736;23.346;2023-02-28T08:41:35;96182.97;;;9.47;100.00
20624;BME280;10471;42.736;23.346;2023-02-28T08:44:00;96180.69;;;9.56;100.00
20624;BME280;10471;42.736;23.346;2023-02-28T08:46:26;96178.41;;;9.64;100.00
20624;BME280;10471;42.736;23.346;2023-02-28T08:48:53;96183.66;;;9.64;100.00
20624;BME280;10471;42.736;23.346;2023-02-28T08:51:20;96173.19;;;9.69;100.00
20624;BME280;10471;42.736;23.346;2023-02-28T08:53:57;96176.41;;;9.76;100.00
20624;BME280;10471;42.736;23.346;2023-02-28T08:56:23;96168.66;;;9.91;100.00
20624;BME280;10471;42.736;23.346;2023-02-28T08:58:50;96176.28;;;9.92;100.00
20624;BME280;10471;42.736;23.346;2023-02-28T09:01:18;96173.56;;;10.14;100.00
20624;BME280;10471;42.736;23.346;2023-02-28T09:03:45;96166.88;;;10.33;100.00
20624;BME280;10471;42.736;23.346;2023-02-28T09:06:11;96165.88;;;10.39;100.00
20624;BME280;10471;42.736;23.346;2023-02-28T09:08:37;96169.69;;;10.57;100.00
20624;BME280;10471;42.736;23.346;2023-02-28T09:11:03;96159.72;;;10.64;100.00
20624;BME280;10471;42.736;23.346;2023-02-28T09:13:29;96158.44;;;10.72;100.00
20624;BME280;10471;42.736;23.346;2023-02-28T09:15:58;96156.06;;;10.75;100.00
20624;BME280;10471;42.736;23.346;2023-02-28T09:18:24;96161.38;;;10.80;100.00
20624;BME280;10471;42.736;23.346;2023-02-28T09:20:49;96159.81;;;10.84;100.00
20624;BME280;10471;42.736;23.346;2023-02-28T09:23:15;96155.03;;;10.81;100.00
20624;BME280;10471;42.736;23.346;2023-02-28T09:25:49;96161.94;;;10.92;100.00
20624;BME280;10471;42.736;23.346;2023-02-28T09:28:15;96158.28;;;11.03;100.00
20624;BME280;10471;42.736;23.346;2023-02-28T09:30:44;96164.69;;;11.12;100.00
20624;BME280;10471;42.736;23.346;2023-02-28T09:33:09;96166.84;;;11.30;100.00
20624;BME280;10471;42.736;23.346;2023-02-28T09:35:34;96161.06;;;11.38;100.00
20624;BME280;10471;42.736;23.346;2023-02-28T09:38:02;96156.91;;;11.52;100.00
20624;BME280;10471;42.736;23.346;2023-02-28T09:40:28;96164.31;;;11.75;100.00
20624;BME280;10471;42.736;23.346;2023-02-28T09:42:55;96166.16;;;11.74;100.00
20624;BME280;10471;42.736;23.346;2023-02-28T09:45:41;96159.56;;;11.67;100.00
20624;BME280;10471;42.736;23.346;2023-02-28T09:48:14;96166.44;;;11.77;100.00
20624;BME280;10471;42.736;23.346;2023-02-28T09:50:52;96156.38;;;11.65;100.00
20624;BME280;10471;42.736;23.346;2023-02-28T09:53:26;96174.38;;;11.82;100.00
20624;BME280;10471;42.736;23.346;2023-02-28T09:55:58;96165.13;;;11.90;100.00
20624;BME280;10471;42.736;23.346;2023-02-28T10:06:48;96162.22;;;12.06;100.00
20624;BME280;10471;42.736;23.346;2023-02-28T10:09:18;96160.66;;;12.20;100.00
20624;BME280;10471;42.736;23.346;2023-02-28T10:11:49;96164.31;;;12.39;100.00
20624;BME280;10471;42.736;23.346;2023-02-28T10:14:18;96153.78;;;12.29;100.00
20624;BME280;10471;42.736;23.346;2023-02-28T10:17:11;96151.88;;;12.44;100.00
20624;BME280;10471;42.736;23.346;2023-02-28T10:22:37;96151.38;;;12.43;100.00
20624;BME280;10471;42.736;23.346;2023-02-28T10:25:21;96146.59;;;12.44;100.00
20624;BME280;10471;42.736;23.346;2023-02-28T10:27:47;96137.59;;;12.55;100.00
20624;BME280;10471;42.736;23.346;2023-02-28T10:30:13;96144.19;;;12.63;100.00
20624;BME280;10471;42.736;23.346;2023-02-28T10:32:47;96134.44;;;12.53;100.00
20624;BME280;10471;42.736;23.346;2023-02-28T10:35:19;96133.09;;;12.61;100.00
20624;BME280;10471;42.736;23.346;2023-02-28T10:37:48;96135.19;;;12.59;100.00
20624;BME280;10471;42.736;23.346;2023-02-28T10:45:58;96123.50;;;12.90;100.00
20624;BME280;10471;42.736;23.346;2023-02-28T10:49:12;96105.47;;;13.02;100.00
20624;BME280;10471;42.736;23.346;2023-02-28T10:51:19;96108.13;;;13.02;100.00
20624;BME280;10471;42.736;23.346;2023-02-28T10:53:49;96105.91;;;13.18;100.00
20624;BME280;10471;42.736;23.346;2023-02-28T10:56:24;96100.72;;;13.47;100.00
20624;BME280;10471;42.736;23.346;2023-02-28T11:01:47;96089.28;;;13.51;100.00
20624;BME280;10471;42.736;23.346;2023-02-28T11:07:05;96077.44;;;13.77;100.00
20624;BME280;10471;42.736;23.346;2023-02-28T11:09:51;96080.91;;;14.06;100.00
20624;BME280;10471;42.736;23.346;2023-02-28T11:12:23;96082.03;;;14.00;100.00
20624;BME280;10471;42.736;23.346;2023-02-28T11:14:53;96085.69;;;14.09;100.00
20624;BME280;10471;42.736;23.346;2023-02-28T11:17:25;96080.84;;;14.16;100.00
20624;BME280;10471;42.736;23.346;2023-02-28T11:19:53;96080.63;;;14.12;100.00
20624;BME280;10471;42.736;23.346;2023-02-28T11:22:28;96072.75;;;14.31;100.00
20624;BME280;10471;42.736;23.346;2023-02-28T11:25:01;96067.53;;;14.49;100.00
20624;BME280;10471;42.736;23.346;2023-02-28T11:29:55;96060.69;;;14.43;100.00
20624;BME280;10471;42.736;23.346;2023-02-28T11:32:25;96061.41;;;14.25;100.00
20624;BME280;10471;42.736;23.346;2023-02-28T11:37:34;96067.78;;;14.24;100.00
20624;BME280;10471;42.736;23.346;2023-02-28T11:39:59;96059.25;;;14.27;100.00
20624;BME280;10471;42.736;23.346;2023-02-28T11:45:20;96061.69;;;14.24;100.00
20624;BME280;10471;42.736;23.346;2023-02-28T11:56:39;96062.63;;;14.38;100.00
20624;BME280;10471;42.736;23.346;2023-02-28T11:59:13;96065.75;;;14.40;100.00
20624;BME280;10471;42.736;23.346;2023-02-28T12:21:11;96065.00;;;14.11;100.00
20624;BME280;10471;42.736;23.346;2023-02-28T12:31:39;96045.47;;;14.30;100.00
20624;BME280;10471;42.736;23.346;2023-02-28T12:34:11;96052.66;;;14.25;100.00
20624;BME280;10471;42.736;23.346;2023-02-28T12:36:39;96054.78;;;14.28;100.00
20624;BME280;10471;42.736;23.346;2023-02-28T12:39:18;96058.31;;;14.42;100.00
20624;BME280;10471;42.736;23.346;2023-02-28T12:44:24;96039.13;;;14.49;100.00
20624;BME280;10471;42.736;23.346;2023-02-28T12:46:55;96052.28;;;14.36;100.00
20624;BME280;10471;42.736;23.346;2023-02-28T12:49:29;96039.13;;;14.26;100.00
20624;BME280;10471;42.736;23.346;2023-02-28T12:51:57;96043.75;;;14.16;100.00
20624;BME280;10471;42.736;23.346;2023-02-28T13:00:00;96044.75;;;14.20;100.00
20624;BME280;10471;42.736;23.346;2023-02-28T13:10:57;96036.56;;;13.55;100.00
20624;BME280;10471;42.736;23.346;2023-02-28T13:13:27;96035.19;;;13.62;100.00
20624;BME280;10471;42.736;23.346;2023-02-28T13:16:00;96032.84;;;13.56;100.00
20624;BME280;10471;42.736;23.346;2023-02-28T13:18:42;96031.06;;;13.46;100.00
20624;BME280;10471;42.736;23.346;2023-02-28T13:21:21;96025.81;;;13.41;100.00
20624;BME280;10471;42.736;23.346;2023-02-28T13:26:21;96024.63;;;13.24;100.00
20624;BME280;10471;42.736;23.346;2023-02-28T13:31:20;96019.25;;;13.34;100.00
20624;BME280;10471;42.736;23.346;2023-02-28T13:44:11;96018.81;;;13.22;100.00
20624;BME280;10471;42.736;23.346;2023-02-28T13:49:31;96014.75;;;12.91;100.00
20624;BME280;10471;42.736;23.346;2023-02-28T13:59:46;95999.22;;;12.75;100.00
20624;BME280;10471;42.736;23.346;2023-02-28T14:04:44;96011.88;;;12.83;100.00
20624;BME280;10471;42.736;23.346;2023-02-28T14:07:26;96013.72;;;12.87;100.00
20624;BME280;10471;42.736;23.346;2023-02-28T14:10:31;96009.75;;;12.90;100.00
20624;BME280;10471;42.736;23.346;2023-02-28T14:13:46;96010.56;;;12.85;100.00
20624;BME280;10471;42.736;23.346;2023-02-28T14:15:56;96013.06;;;12.57;100.00
20624;BME280;10471;42.736;23.346;2023-02-28T14:18:47;96015.34;;;12.78;100.00
20624;BME280;10471;42.736;23.346;2023-02-28T14:27:08;96019.09;;;12.67;100.00
20624;BME280;10471;42.736;23.346;2023-02-28T14:32:33;96030.09;;;12.26;100.00
20624;BME280;10471;42.736;23.346;2023-02-28T14:35:13;96027.47;;;12.16;100.00
20624;BME280;10471;42.736;23.346;2023-02-28T14:37:42;96031.19;;;12.15;100.00
20624;BME280;10471;42.736;23.346;2023-02-28T14:40:17;96033.28;;;12.13;100.00
20624;BME280;10471;42.736;23.346;2023-02-28T14:42:55;96034.66;;;12.01;100.00
20624;BME280;10471;42.736;23.346;2023-02-28T14:45:22;96029.09;;;11.97;100.00
20624;BME280;10471;42.736;23.346;2023-02-28T14:47:50;96030.69;;;11.98;100.00
20624;BME280;10471;42.736;23.346;2023-02-28T14:50:21;96026.72;;;11.96;100.00
20624;BME280;10471;42.736;23.346;2023-02-28T14:52:51;96027.81;;;11.80;100.00
20624;BME280;10471;42.736;23.346;2023-02-28T14:55:18;96028.88;;;11.64;100.00
20624;BME280;10471;42.736;23.346;2023-02-28T14:57:57;96038.13;;;11.62;100.00
20624;BME280;10471;42.736;23.346;2023-02-28T15:00:27;96036.53;;;11.51;100.00
20624;BME280;10471;42.736;23.346;2023-02-28T15:02:55;96038.13;;;11.57;100.00
20624;BME280;10471;42.736;23.346;2023-02-28T15:05:29;96029.66;;;11.55;100.00
20624;BME280;10471;42.736;23.346;2023-02-28T15:08:14;96034.13;;;11.49;100.00
20624;BME280;10471;42.736;23.346;2023-02-28T15:10:49;96033.88;;;11.41;100.00
20624;BME280;10471;42.736;23.346;2023-02-28T15:13:16;96025.94;;;11.46;100.00
20624;BME280;10471;42.736;23.346;2023-02-28T15:21:07;96032.78;;;11.17;100.00
20624;BME280;10471;42.736;23.346;2023-02-28T15:23:36;96030.09;;;11.02;100.00
20624;BME280;10471;42.736;23.346;2023-02-28T15:26:03;96032.47;;;10.89;100.00
20624;BME280;10471;42.736;23.346;2023-02-28T15:28:29;96038.81;;;10.88;100.00
20624;BME280;10471;42.736;23.346;2023-02-28T15:31:00;96039.56;;;10.83;100.00
20624;BME280;10471;42.736;23.346;2023-02-28T15:33:31;96049.56;;;10.81;100.00
20624;BME280;10471;42.736;23.346;2023-02-28T15:36:15;96057.47;;;10.76;100.00
20624;BME280;10471;42.736;23.346;2023-02-28T15:38:43;96052.72;;;10.73;100.00
20624;BME280;10471;42.736;23.346;2023-02-28T15:41:25;96047.97;;;10.65;100.00
20624;BME280;10471;42.736;23.346;2023-02-28T15:49:27;96050.03;;;10.53;100.00